Geiranger — 9V8147 — position and weather

sailwx.info

Track history (hours):
 
Tides and Currents Weather Stations Pressure Air Temp Water Temp Dewpoint Dewpoint Depression Visibility Wind Speed Wind Dir Waves Ship Positions

Geiranger

Last reported at 2018-Jul-19 09:28 UTC. Time now 2018-Jul-19 09:53 UTC.
Position N 51°21' E 003°11'.

Length 201 m; draft 8.5 m.

Type: Cargo ship. MMSI: 564351000.

Date/timePositionNaut miles runAvg speedWind from/ knotsBaromVisibWave heightAir tempDewpointWater temp
2018-Jul-19 09:28N 51°21' E 003°11'0 0.0
2018-Jul-19 08:58N 51°21' E 003°11'0 0.0
2018-Jul-19 08:28N 51°21' E 003°11'0 0.0
2018-Jul-19 07:58N 51°21' E 003°11'0 0.0
2018-Jul-19 07:28N 51°21' E 003°11'0 0.0
2018-Jul-19 06:58N 51°21' E 003°11'0 0.0
2018-Jul-19 06:25N 51°21' E 003°11'0 0.0
2018-Jul-19 05:58N 51°21' E 003°11'0 0.0
2018-Jul-19 05:28N 51°21' E 003°11'0 0.0
2018-Jul-19 04:58N 51°21' E 003°11'0 0.0
2018-Jul-19 04:28N 51°21' E 003°11'0 0.0
2018-Jul-19 03:55N 51°21' E 003°11'0 0.0
2018-Jul-19 03:28N 51°21' E 003°11'0 0.0
2018-Jul-19 02:55N 51°21' E 003°11'0 0.0
2018-Jul-19 02:28N 51°21' E 003°11'0 0.0
2018-Jul-19 01:58N 51°21' E 003°11'0 0.0
2018-Jul-19 01:28N 51°21' E 003°11'0 0.0
2018-Jul-19 00:58N 51°21' E 003°11'0 0.0
2018-Jul-19 00:28N 51°21' E 003°11'0 0.0
2018-Jul-18 23:55N 51°21' E 003°11'0 0.0
2018-Jul-18 23:28N 51°21' E 003°11'0 0.0
2018-Jul-18 22:58N 51°21' E 003°11'0 0.0
2018-Jul-18 22:28N 51°21' E 003°11'0 0.0
2018-Jul-18 21:58N 51°21' E 003°11'0 0.0
2018-Jul-18 21:25N 51°21' E 003°11'0 0.0
2018-Jul-18 20:52N 51°21' E 003°11'0 0.0
2018-Jul-18 20:28N 51°21' E 003°11'0 0.0
2018-Jul-18 19:55N 51°21' E 003°11'0 0.0
2018-Jul-18 19:31N 51°21' E 003°11'0 0.0
2018-Jul-18 18:55N 51°21' E 003°11'0 0.0
2018-Jul-18 18:30N 51°21' E 003°11'0 0.0
2018-Jul-18 17:57N 51°21' E 003°11'0 0.0
2018-Jul-18 17:30N 51°21' E 003°11'0 0.0
2018-Jul-18 17:00N 51°21' E 003°11'0 0.0
2018-Jul-18 16:30N 51°21' E 003°11'0 0.0
2018-Jul-18 16:00N 51°21' E 003°11'0 0.0
2018-Jul-18 15:30N 51°21' E 003°11'0 0.0
2018-Jul-18 15:00N 51°21' E 003°11'0 0.0
2018-Jul-18 14:30N 51°21' E 003°11'0 0.0
2018-Jul-18 13:24N 51°21' E 003°11'0 0.0
2018-Jul-18 13:00N 51°21' E 003°11'0 0.0
2018-Jul-18 12:27N 51°21' E 003°11'0 0.0
2018-Jul-18 11:45N 51°21' E 003°11'0 0.0
2018-Jul-18 11:30N 51°21' E 003°11'0 0.0
2018-Jul-18 10:30N 51°21' E 003°11'0 0.0
2018-Jul-18 10:00N 51°21' E 003°11'0 0.0
2018-Jul-18 09:24N 51°21' E 003°11'0 0.0
2018-Jul-18 08:54N 51°21' E 003°11'0 0.0
2018-Jul-18 08:06N 51°21' E 003°11'0 0.0
2018-Jul-18 08:00N 51°21' E 003°11'0 0.0
2018-Jul-18 07:27N 51°21' E 003°11'0 0.0
2018-Jul-18 06:21N 51°21' E 003°11'0 0.0
2018-Jul-18 05:54N 51°21' E 003°11'0 0.0
2018-Jul-18 05:30N 51°21' E 003°11'0 0.0
2018-Jul-18 04:57N 51°21' E 003°11'0 0.0
2018-Jul-18 04:30N 51°21' E 003°11'0 0.0
2018-Jul-18 04:00N 51°21' E 003°11'0 0.0
2018-Jul-18 03:27N 51°21' E 003°11'0 0.0
2018-Jul-18 03:00N 51°21' E 003°11'1 1.6
2018-Jul-18 02:30N 51°21' E 003°12'3 5.9
2018-Jul-18 02:00N 51°24' E 003°12'510.7
2018-Jul-18 01:30N 51°24' E 003°21'611.3
2018-Jul-18 01:00N 51°25' E 003°30'4 8.4
2018-Jul-18 00:30N 51°26' E 003°36'3 6.4
2018-Jul-18 00:00N 51°28' E 003°41'1 2.5
2018-Jul-17 23:30N 51°27' E 003°43'0 0.7
2018-Jul-17 23:00N 51°27' E 003°43'0 0.0
2018-Jul-17 22:30N 51°27' E 003°43'0 0.0
2018-Jul-17 22:00N 51°27' E 003°43'0 0.0
2018-Jul-17 21:30N 51°27' E 003°43'0 0.0
2018-Jul-17 21:00N 51°27' E 003°43'0 0.0
2018-Jul-17 20:30N 51°27' E 003°43'0 0.0
2018-Jul-17 20:00N 51°27' E 003°43'0 0.0
2018-Jul-17 19:30N 51°27' E 003°43'0 0.0
2018-Jul-17 19:00N 51°27' E 003°43'0 0.0
2018-Jul-17 18:30N 51°27' E 003°43'0 0.0
2018-Jul-17 18:00N 51°27' E 003°43'0 0.0
2018-Jul-17 17:29N 51°27' E 003°43'0 0.0
2018-Jul-17 16:59N 51°27' E 003°43'0 0.0
2018-Jul-17 16:29N 51°27' E 003°43'0 0.0
2018-Jul-17 15:59N 51°27' E 003°43'0 0.0
2018-Jul-17 15:29N 51°27' E 003°43'0 0.0
2018-Jul-17 14:59N 51°27' E 003°43'0 0.0
2018-Jul-17 14:29N 51°27' E 003°43'0 0.0
2018-Jul-17 13:59N 51°27' E 003°43'0 0.0
2018-Jul-17 13:29N 51°27' E 003°43'0 0.0
2018-Jul-17 12:59N 51°27' E 003°43'0 0.0
2018-Jul-17 12:29N 51°27' E 003°43'0 0.0
2018-Jul-17 11:59N 51°27' E 003°43'0 0.0
2018-Jul-17 11:29N 51°27' E 003°43'0 0.0
2018-Jul-17 10:59N 51°27' E 003°43'0 0.0
2018-Jul-17 10:29N 51°27' E 003°43'0 0.0
2018-Jul-17 09:59N 51°27' E 003°43'0 0.0
2018-Jul-17 09:29N 51°27' E 003°43'0 0.0
2018-Jul-17 08:59N 51°27' E 003°43'0 0.0
2018-Jul-17 08:29N 51°27' E 003°43'0 0.0
2018-Jul-17 07:59N 51°27' E 003°43'0 0.0
2018-Jul-17 07:29N 51°27' E 003°43'0 0.0
2018-Jul-17 06:59N 51°27' E 003°43'0 0.0
2018-Jul-17 06:29N 51°27' E 003°43'0 0.0
2018-Jul-17 05:59N 51°27' E 003°43'0 0.0
2018-Jul-17 05:29N 51°27' E 003°43'0 0.0
2018-Jul-17 04:59N 51°27' E 003°43'0 0.0
2018-Jul-17 04:29N 51°27' E 003°43'0 0.0
2018-Jul-17 03:59N 51°27' E 003°43'0 0.0
2018-Jul-17 03:29N 51°27' E 003°43'0 0.0
2018-Jul-17 02:59N 51°27' E 003°43'0 0.0
2018-Jul-17 02:29N 51°27' E 003°43'0 0.0
2018-Jul-17 01:59N 51°27' E 003°43'0 0.0
2018-Jul-17 01:29N 51°27' E 003°43'0 0.0
2018-Jul-17 00:59N 51°27' E 003°43'0 0.0
2018-Jul-17 00:29N 51°27' E 003°43'0 0.0
2018-Jul-16 23:29N 51°27' E 003°43'0 0.0
2018-Jul-16 22:59N 51°27' E 003°43'0 0.0
2018-Jul-16 22:29N 51°27' E 003°43'0 0.0
2018-Jul-16 21:59N 51°27' E 003°43'0 0.0
2018-Jul-16 21:29N 51°27' E 003°43'0 0.0
2018-Jul-16 20:59N 51°27' E 003°43'0 0.0
2018-Jul-16 20:29N 51°27' E 003°43'0 0.0
2018-Jul-16 19:59N 51°27' E 003°43'0 0.0
2018-Jul-16 19:29N 51°27' E 003°43'0 0.0
2018-Jul-16 18:59N 51°27' E 003°43'0 0.0
2018-Jul-16 18:29N 51°27' E 003°43'0 0.0
2018-Jul-16 17:59N 51°27' E 003°43'0 0.0
2018-Jul-16 17:29N 51°27' E 003°43'0 0.0
2018-Jul-16 16:59N 51°27' E 003°43'0 0.0
2018-Jul-16 16:29N 51°27' E 003°43'0 0.0
2018-Jul-16 15:59N 51°27' E 003°43'0 0.0
2018-Jul-16 15:29N 51°27' E 003°43'0 0.0
2018-Jul-16 14:59N 51°27' E 003°43'0 0.0
2018-Jul-16 14:29N 51°27' E 003°43'0 0.0
2018-Jul-16 13:59N 51°27' E 003°43'0 0.0
2018-Jul-16 13:29N 51°27' E 003°43'0 0.0
2018-Jul-16 12:59N 51°27' E 003°43'0 0.0
2018-Jul-16 12:29N 51°27' E 003°43'0 0.0
2018-Jul-16 11:59N 51°27' E 003°43'0 0.0
2018-Jul-16 11:29N 51°27' E 003°43'0 0.0
2018-Jul-16 10:59N 51°27' E 003°43'0 0.0
2018-Jul-16 10:29N 51°27' E 003°43'0 0.0
2018-Jul-16 09:59N 51°27' E 003°43'0 0.0
2018-Jul-16 09:29N 51°27' E 003°43'0 0.0
2018-Jul-16 08:59N 51°27' E 003°43'0 0.0
2018-Jul-16 08:29N 51°27' E 003°43'0 0.0
2018-Jul-16 07:59N 51°27' E 003°43'0 0.0
2018-Jul-16 07:29N 51°27' E 003°43'0 0.0
2018-Jul-16 06:59N 51°27' E 003°43'0 0.0
2018-Jul-16 06:29N 51°27' E 003°43'0 0.0
2018-Jul-16 05:59N 51°27' E 003°43'0 0.0
2018-Jul-16 05:29N 51°27' E 003°43'0 0.0
2018-Jul-16 04:59N 51°27' E 003°43'0 0.0
2018-Jul-16 04:28N 51°27' E 003°43'0 0.0
2018-Jul-16 03:58N 51°27' E 003°43'0 0.0
2018-Jul-16 03:28N 51°27' E 003°43'0 0.0
2018-Jul-16 02:58N 51°27' E 003°43'0 0.0
2018-Jul-16 02:28N 51°27' E 003°43'0 0.0
2018-Jul-16 01:58N 51°27' E 003°43'0 0.0
2018-Jul-16 01:31N 51°27' E 003°43'1 2.0
2018-Jul-16 01:01N 51°27' E 003°42'2 3.8
2018-Jul-16 00:31N 51°26' E 003°39'611.0
2018-Jul-16 00:00N 51°25' E 003°31'713.1
2018-Jul-15 23:31N 51°24' E 003°20'612.1
2018-Jul-15 23:01N 51°24' E 003°11'611.2
2018-Jul-15 22:31N 51°24' E 003°02'510.4
2018-Jul-15 22:00N 51°22' E 002°54'510.5
2018-Jul-15 21:31N 51°21' E 002°46'5 9.6
2018-Jul-15 21:01N 51°22' E 002°38'3 6.3
2018-Jul-15 20:31N 51°22' E 002°33'4 8.8
2018-Jul-15 20:01N 51°21' E 002°26'5 9.0
2018-Jul-15 19:30N 51°19' E 002°20'4 8.3
2018-Jul-15 19:00N 51°17' E 002°14'4 7.4
2018-Jul-15 18:30N 51°15' E 002°08'4 7.4
2018-Jul-15 18:00N 51°13' E 002°03'5 9.4
2018-Jul-15 17:31N 51°11' E 001°57'5 9.7
2018-Jul-15 17:01N 51°09' E 001°50'510.2
2018-Jul-15 16:30N 51°05' E 001°44'511.0
2018-Jul-15 16:00N 51°01' E 001°38'612.9
2018-Jul-15 15:30N 50°57' E 001°31'714.1
2018-Jul-15 15:00N 50°51' E 001°25'713.9
2018-Jul-15 14:30N 50°44' E 001°21'612.6
2018-Jul-15 14:00N 50°39' E 001°15'713.2
2018-Jul-15 13:29N 50°35' E 001°07'612.9
2018-Jul-15 13:00N 50°31' E 000°60'713.6
2018-Jul-15 12:30N 50°29' E 000°49'613.0
2018-Jul-15 12:00N 50°26' E 000°40'713.3
2018-Jul-15 11:30N 50°25' E 000°30'713.9
2018-Jul-15 11:00N 50°23' E 000°19'714.4
2018-Jul-15 10:30N 50°21' E 000°08'714.5
2018-Jul-15 10:01N 50°19' W 000°03'714.4
2018-Jul-15 09:30N 50°17' W 000°14'713.5
2018-Jul-15 09:00N 50°15' W 000°24'612.3
2018-Jul-15 08:30N 50°13' W 000°33'714.0
2018-Jul-15 08:00N 50°11' W 000°43'713.5
2018-Jul-15 07:30N 50°10' W 000°53'612.8
2018-Jul-15 07:00N 50°09' W 001°03'611.9
2018-Jul-15 06:30N 50°07' W 001°13'510.9
2018-Jul-15 06:00N 50°06' W 001°21'510.1
2018-Jul-15 05:30N 50°05' W 001°28'5 9.2
2018-Jul-15 05:00N 50°03' W 001°35'4 8.4
2018-Jul-15 04:29N 50°02' W 001°42'4 7.6
2018-Jul-15 04:00N 50°01' W 001°47'4 7.5
2018-Jul-15 03:30N 49°60' W 001°53'4 7.2
2018-Jul-15 02:54N 49°58' W 001°59'3 7.1
2018-Jul-15 02:27N 49°57' W 002°04'3 7.3
2018-Jul-15 02:00N 49°57' W 002°09'4 8.2
2018-Jul-15 01:30N 49°56' W 002°15'5 9.3
2018-Jul-15 01:00N 49°55' W 002°22'510.3
2018-Jul-15 00:30N 49°53' W 002°30'510.8
2018-Jul-15 00:00N 49°52' W 002°38'611.5
2018-Jul-14 23:30N 49°50' W 002°46'612.0
2018-Jul-14 23:00N 49°48' W 002°55'612.5
2018-Jul-14 22:30N 49°45' W 003°04'612.6
2018-Jul-14 22:01N 49°42' W 003°12'612.6
2018-Jul-14 21:30N 49°39' W 003°21'612.8
2018-Jul-14 21:00N 49°36' W 003°29'812.9
2018-Jul-14 20:25N 49°32' W 003°39'813.0
2018-Jul-14 19:49N 49°27' W 003°49'413.3
2018-Jul-14 19:30N 49°25' W 003°55'1713.7
2018-Jul-14 18:13N 49°17' W 004°18'2013.9
2018-Jul-14 16:46N 49°07' W 004°45'413.7
2018-Jul-14 16:30N 49°05' W 004°49'713.7
2018-Jul-14 16:00N 49°01' W 004°58'713.2
2018-Jul-14 15:28N 48°58' W 005°08'613.1
2018-Jul-14 15:00N 48°55' W 005°16'1312.5
2018-Jul-14 14:00N 48°48' W 005°32'611.9
2018-Jul-14 13:30N 48°45' W 005°39'510.3
2018-Jul-14 13:00N 48°41' W 005°44'5 9.7
2018-Jul-14 12:28N 48°36' W 005°48'4 9.5
2018-Jul-14 12:00N 48°32' W 005°52'26 9.7
2018-Jul-14 09:21N 48°11' W 006°13'17 9.9
2018-Jul-14 07:37N 47°57' W 006°27'410.6
2018-Jul-14 07:14N 47°53' W 006°30'611.2
2018-Jul-14 06:45N 47°48' W 006°33'310.8
2018-Jul-14 06:30N 47°46' W 006°35'1010.9
2018-Jul-14 05:33N 47°37' W 006°44'111.6
2018-Jul-14 05:30N 47°37' W 006°45'611.9
2018-Jul-14 05:00N 47°32' W 006°50'612.4
2018-Jul-14 04:30N 47°27' W 006°55'612.4
2018-Jul-14 04:00N 47°22' W 006°60'611.9
2018-Jul-14 03:30N 47°17' W 007°06'612.2
2018-Jul-14 03:00N 47°12' W 007°11'612.6
2018-Jul-14 02:30N 47°07' W 007°15'612.2
2018-Jul-14 01:59N 47°02' W 007°20'1311.9
2018-Jul-14 00:53N 46°51' W 007°31'611.9
2018-Jul-14 00:22N 46°45' W 007°36'411.8
2018-Jul-14 00:00N 46°42' W 007°39'3011.6
2018-Jul-13 21:27N 46°17' W 008°03'  
Track history (hours):
 
Tides and Currents Weather Stations Pressure Air Temp Water Temp Dewpoint Dewpoint Depression Visibility Wind Speed Wind Dir Waves Ship Positions

Geiranger

Last reported at 2018-Jul-19 09:28 UTC. Time now 2018-Jul-19 09:53 UTC.
Position N 51°21' E 003°11'.

Length 201 m; draft 8.5 m.

Type: Cargo ship. MMSI: 564351000.

Date/timePositionNaut miles runAvg speedWind from/ knotsBaromVisibWave heightAir tempDewpointWater temp
2018-Jul-19 09:28N 51°21' E 003°11'0 0.0
2018-Jul-19 08:58N 51°21' E 003°11'0 0.0
2018-Jul-19 08:28N 51°21' E 003°11'0 0.0
2018-Jul-19 07:58N 51°21' E 003°11'0 0.0
2018-Jul-19 07:28N 51°21' E 003°11'0 0.0
2018-Jul-19 06:58N 51°21' E 003°11'0 0.0
2018-Jul-19 06:25N 51°21' E 003°11'0 0.0
2018-Jul-19 05:58N 51°21' E 003°11'0 0.0
2018-Jul-19 05:28N 51°21' E 003°11'0 0.0
2018-Jul-19 04:58N 51°21' E 003°11'0 0.0
2018-Jul-19 04:28N 51°21' E 003°11'0 0.0
2018-Jul-19 03:55N 51°21' E 003°11'0 0.0
2018-Jul-19 03:28N 51°21' E 003°11'0 0.0
2018-Jul-19 02:55N 51°21' E 003°11'0 0.0
2018-Jul-19 02:28N 51°21' E 003°11'0 0.0
2018-Jul-19 01:58N 51°21' E 003°11'0 0.0
2018-Jul-19 01:28N 51°21' E 003°11'0 0.0
2018-Jul-19 00:58N 51°21' E 003°11'0 0.0
2018-Jul-19 00:28N 51°21' E 003°11'0 0.0
2018-Jul-18 23:55N 51°21' E 003°11'0 0.0
2018-Jul-18 23:28N 51°21' E 003°11'0 0.0
2018-Jul-18 22:58N 51°21' E 003°11'0 0.0
2018-Jul-18 22:28N 51°21' E 003°11'0 0.0
2018-Jul-18 21:58N 51°21' E 003°11'0 0.0
2018-Jul-18 21:25N 51°21' E 003°11'0 0.0
2018-Jul-18 20:52N 51°21' E 003°11'0 0.0
2018-Jul-18 20:28N 51°21' E 003°11'0 0.0
2018-Jul-18 19:55N 51°21' E 003°11'0 0.0
2018-Jul-18 19:31N 51°21' E 003°11'0 0.0
2018-Jul-18 18:55N 51°21' E 003°11'0 0.0
2018-Jul-18 18:30N 51°21' E 003°11'0 0.0
2018-Jul-18 17:57N 51°21' E 003°11'0 0.0
2018-Jul-18 17:30N 51°21' E 003°11'0 0.0
2018-Jul-18 17:00N 51°21' E 003°11'0 0.0
2018-Jul-18 16:30N 51°21' E 003°11'0 0.0
2018-Jul-18 16:00N 51°21' E 003°11'0 0.0
2018-Jul-18 15:30N 51°21' E 003°11'0 0.0
2018-Jul-18 15:00N 51°21' E 003°11'0 0.0
2018-Jul-18 14:30N 51°21' E 003°11'0 0.0
2018-Jul-18 13:24N 51°21' E 003°11'0 0.0
2018-Jul-18 13:00N 51°21' E 003°11'0 0.0
2018-Jul-18 12:27N 51°21' E 003°11'0 0.0
2018-Jul-18 11:45N 51°21' E 003°11'0 0.0
2018-Jul-18 11:30N 51°21' E 003°11'0 0.0
2018-Jul-18 10:30N 51°21' E 003°11'0 0.0
2018-Jul-18 10:00N 51°21' E 003°11'0 0.0
2018-Jul-18 09:24N 51°21' E 003°11'0 0.0
2018-Jul-18 08:54N 51°21' E 003°11'0 0.0
2018-Jul-18 08:06N 51°21' E 003°11'0 0.0
2018-Jul-18 08:00N 51°21' E 003°11'0 0.0
2018-Jul-18 07:27N 51°21' E 003°11'0 0.0
2018-Jul-18 06:21N 51°21' E 003°11'0 0.0
2018-Jul-18 05:54N 51°21' E 003°11'0 0.0
2018-Jul-18 05:30N 51°21' E 003°11'0 0.0
2018-Jul-18 04:57N 51°21' E 003°11'0 0.0
2018-Jul-18 04:30N 51°21' E 003°11'0 0.0
2018-Jul-18 04:00N 51°21' E 003°11'0 0.0
2018-Jul-18 03:27N 51°21' E 003°11'0 0.0
2018-Jul-18 03:00N 51°21' E 003°11'1 1.6
2018-Jul-18 02:30N 51°21' E 003°12'3 5.9
2018-Jul-18 02:00N 51°24' E 003°12'510.7
2018-Jul-18 01:30N 51°24' E 003°21'611.3
2018-Jul-18 01:00N 51°25' E 003°30'4 8.4
2018-Jul-18 00:30N 51°26' E 003°36'3 6.4
2018-Jul-18 00:00N 51°28' E 003°41'1 2.5
2018-Jul-17 23:30N 51°27' E 003°43'0 0.7
2018-Jul-17 23:00N 51°27' E 003°43'0 0.0
2018-Jul-17 22:30N 51°27' E 003°43'0 0.0
2018-Jul-17 22:00N 51°27' E 003°43'0 0.0
2018-Jul-17 21:30N 51°27' E 003°43'0 0.0
2018-Jul-17 21:00N 51°27' E 003°43'0 0.0
2018-Jul-17 20:30N 51°27' E 003°43'0 0.0
2018-Jul-17 20:00N 51°27' E 003°43'0 0.0
2018-Jul-17 19:30N 51°27' E 003°43'0 0.0
2018-Jul-17 19:00N 51°27' E 003°43'0 0.0
2018-Jul-17 18:30N 51°27' E 003°43'0 0.0
2018-Jul-17 18:00N 51°27' E 003°43'0 0.0
2018-Jul-17 17:29N 51°27' E 003°43'0 0.0
2018-Jul-17 16:59N 51°27' E 003°43'0 0.0
2018-Jul-17 16:29N 51°27' E 003°43'0 0.0
2018-Jul-17 15:59N 51°27' E 003°43'0 0.0
2018-Jul-17 15:29N 51°27' E 003°43'0 0.0
2018-Jul-17 14:59N 51°27' E 003°43'0 0.0
2018-Jul-17 14:29N 51°27' E 003°43'0 0.0
2018-Jul-17 13:59N 51°27' E 003°43'0 0.0
2018-Jul-17 13:29N 51°27' E 003°43'0 0.0
2018-Jul-17 12:59N 51°27' E 003°43'0 0.0
2018-Jul-17 12:29N 51°27' E 003°43'0 0.0
2018-Jul-17 11:59N 51°27' E 003°43'0 0.0
2018-Jul-17 11:29N 51°27' E 003°43'0 0.0
2018-Jul-17 10:59N 51°27' E 003°43'0 0.0
2018-Jul-17 10:29N 51°27' E 003°43'0 0.0
2018-Jul-17 09:59N 51°27' E 003°43'0 0.0
2018-Jul-17 09:29N 51°27' E 003°43'0 0.0
2018-Jul-17 08:59N 51°27' E 003°43'0 0.0
2018-Jul-17 08:29N 51°27' E 003°43'0 0.0
2018-Jul-17 07:59N 51°27' E 003°43'0 0.0
2018-Jul-17 07:29N 51°27' E 003°43'0 0.0
2018-Jul-17 06:59N 51°27' E 003°43'0 0.0
2018-Jul-17 06:29N 51°27' E 003°43'0 0.0
2018-Jul-17 05:59N 51°27' E 003°43'0 0.0
2018-Jul-17 05:29N 51°27' E 003°43'0 0.0
2018-Jul-17 04:59N 51°27' E 003°43'0 0.0
2018-Jul-17 04:29N 51°27' E 003°43'0 0.0
2018-Jul-17 03:59N 51°27' E 003°43'0 0.0
2018-Jul-17 03:29N 51°27' E 003°43'0 0.0
2018-Jul-17 02:59N 51°27' E 003°43'0 0.0
2018-Jul-17 02:29N 51°27' E 003°43'0 0.0
2018-Jul-17 01:59N 51°27' E 003°43'0 0.0
2018-Jul-17 01:29N 51°27' E 003°43'0 0.0
2018-Jul-17 00:59N 51°27' E 003°43'0 0.0
2018-Jul-17 00:29N 51°27' E 003°43'0 0.0
2018-Jul-16 23:29N 51°27' E 003°43'0 0.0
2018-Jul-16 22:59N 51°27' E 003°43'0 0.0
2018-Jul-16 22:29N 51°27' E 003°43'0 0.0
2018-Jul-16 21:59N 51°27' E 003°43'0 0.0
2018-Jul-16 21:29N 51°27' E 003°43'0 0.0
2018-Jul-16 20:59N 51°27' E 003°43'0 0.0
2018-Jul-16 20:29N 51°27' E 003°43'0 0.0
2018-Jul-16 19:59N 51°27' E 003°43'0 0.0
2018-Jul-16 19:29N 51°27' E 003°43'0 0.0
2018-Jul-16 18:59N 51°27' E 003°43'0 0.0
2018-Jul-16 18:29N 51°27' E 003°43'0 0.0
2018-Jul-16 17:59N 51°27' E 003°43'0 0.0
2018-Jul-16 17:29N 51°27' E 003°43'0 0.0
2018-Jul-16 16:59N 51°27' E 003°43'0 0.0
2018-Jul-16 16:29N 51°27' E 003°43'0 0.0
2018-Jul-16 15:59N 51°27' E 003°43'0 0.0
2018-Jul-16 15:29N 51°27' E 003°43'0 0.0
2018-Jul-16 14:59N 51°27' E 003°43'0 0.0
2018-Jul-16 14:29N 51°27' E 003°43'0 0.0
2018-Jul-16 13:59N 51°27' E 003°43'0 0.0
2018-Jul-16 13:29N 51°27' E 003°43'0 0.0
2018-Jul-16 12:59N 51°27' E 003°43'0 0.0
2018-Jul-16 12:29N 51°27' E 003°43'0 0.0
2018-Jul-16 11:59N 51°27' E 003°43'0 0.0
2018-Jul-16 11:29N 51°27' E 003°43'0 0.0
2018-Jul-16 10:59N 51°27' E 003°43'0 0.0
2018-Jul-16 10:29N 51°27' E 003°43'0 0.0
2018-Jul-16 09:59N 51°27' E 003°43'0 0.0
2018-Jul-16 09:29N 51°27' E 003°43'0 0.0
2018-Jul-16 08:59N 51°27' E 003°43'0 0.0
2018-Jul-16 08:29N 51°27' E 003°43'0 0.0
2018-Jul-16 07:59N 51°27' E 003°43'0 0.0
2018-Jul-16 07:29N 51°27' E 003°43'0 0.0
2018-Jul-16 06:59N 51°27' E 003°43'0 0.0
2018-Jul-16 06:29N 51°27' E 003°43'0 0.0
2018-Jul-16 05:59N 51°27' E 003°43'0 0.0
2018-Jul-16 05:29N 51°27' E 003°43'0 0.0
2018-Jul-16 04:59N 51°27' E 003°43'0 0.0
2018-Jul-16 04:28N 51°27' E 003°43'0 0.0
2018-Jul-16 03:58N 51°27' E 003°43'0 0.0
2018-Jul-16 03:28N 51°27' E 003°43'0 0.0
2018-Jul-16 02:58N 51°27' E 003°43'0 0.0
2018-Jul-16 02:28N 51°27' E 003°43'0 0.0
2018-Jul-16 01:58N 51°27' E 003°43'0 0.0
2018-Jul-16 01:31N 51°27' E 003°43'1 2.0
2018-Jul-16 01:01N 51°27' E 003°42'2 3.8
2018-Jul-16 00:31N 51°26' E 003°39'611.0
2018-Jul-16 00:00N 51°25' E 003°31'713.1
2018-Jul-15 23:31N 51°24' E 003°20'612.1
2018-Jul-15 23:01N 51°24' E 003°11'611.2
2018-Jul-15 22:31N 51°24' E 003°02'510.4
2018-Jul-15 22:00N 51°22' E 002°54'510.5
2018-Jul-15 21:31N 51°21' E 002°46'5 9.6
2018-Jul-15 21:01N 51°22' E 002°38'3 6.3
2018-Jul-15 20:31N 51°22' E 002°33'4 8.8
2018-Jul-15 20:01N 51°21' E 002°26'5 9.0
2018-Jul-15 19:30N 51°19' E 002°20'4 8.3
2018-Jul-15 19:00N 51°17' E 002°14'4 7.4
2018-Jul-15 18:30N 51°15' E 002°08'4 7.4
2018-Jul-15 18:00N 51°13' E 002°03'5 9.4
2018-Jul-15 17:31N 51°11' E 001°57'5 9.7
2018-Jul-15 17:01N 51°09' E 001°50'510.2
2018-Jul-15 16:30N 51°05' E 001°44'511.0
2018-Jul-15 16:00N 51°01' E 001°38'612.9
2018-Jul-15 15:30N 50°57' E 001°31'714.1
2018-Jul-15 15:00N 50°51' E 001°25'713.9
2018-Jul-15 14:30N 50°44' E 001°21'612.6
2018-Jul-15 14:00N 50°39' E 001°15'713.2
2018-Jul-15 13:29N 50°35' E 001°07'612.9
2018-Jul-15 13:00N 50°31' E 000°60'713.6
2018-Jul-15 12:30N 50°29' E 000°49'613.0
2018-Jul-15 12:00N 50°26' E 000°40'713.3
2018-Jul-15 11:30N 50°25' E 000°30'713.9
2018-Jul-15 11:00N 50°23' E 000°19'714.4
2018-Jul-15 10:30N 50°21' E 000°08'714.5
2018-Jul-15 10:01N 50°19' W 000°03'714.4
2018-Jul-15 09:30N 50°17' W 000°14'713.5
2018-Jul-15 09:00N 50°15' W 000°24'612.3
2018-Jul-15 08:30N 50°13' W 000°33'714.0
2018-Jul-15 08:00N 50°11' W 000°43'713.5
2018-Jul-15 07:30N 50°10' W 000°53'612.8
2018-Jul-15 07:00N 50°09' W 001°03'611.9
2018-Jul-15 06:30N 50°07' W 001°13'510.9
2018-Jul-15 06:00N 50°06' W 001°21'510.1
2018-Jul-15 05:30N 50°05' W 001°28'5 9.2
2018-Jul-15 05:00N 50°03' W 001°35'4 8.4
2018-Jul-15 04:29N 50°02' W 001°42'4 7.6
2018-Jul-15 04:00N 50°01' W 001°47'4 7.5
2018-Jul-15 03:30N 49°60' W 001°53'4 7.2
2018-Jul-15 02:54N 49°58' W 001°59'3 7.1
2018-Jul-15 02:27N 49°57' W 002°04'3 7.3
2018-Jul-15 02:00N 49°57' W 002°09'4 8.2
2018-Jul-15 01:30N 49°56' W 002°15'5 9.3
2018-Jul-15 01:00N 49°55' W 002°22'510.3
2018-Jul-15 00:30N 49°53' W 002°30'510.8
2018-Jul-15 00:00N 49°52' W 002°38'611.5
2018-Jul-14 23:30N 49°50' W 002°46'612.0
2018-Jul-14 23:00N 49°48' W 002°55'612.5
2018-Jul-14 22:30N 49°45' W 003°04'612.6
2018-Jul-14 22:01N 49°42' W 003°12'612.6
2018-Jul-14 21:30N 49°39' W 003°21'612.8
2018-Jul-14 21:00N 49°36' W 003°29'812.9
2018-Jul-14 20:25N 49°32' W 003°39'813.0
2018-Jul-14 19:49N 49°27' W 003°49'413.3
2018-Jul-14 19:30N 49°25' W 003°55'1713.7
2018-Jul-14 18:13N 49°17' W 004°18'2013.9
2018-Jul-14 16:46N 49°07' W 004°45'413.7
2018-Jul-14 16:30N 49°05' W 004°49'713.7
2018-Jul-14 16:00N 49°01' W 004°58'713.2
2018-Jul-14 15:28N 48°58' W 005°08'613.1
2018-Jul-14 15:00N 48°55' W 005°16'1312.5
2018-Jul-14 14:00N 48°48' W 005°32'611.9
2018-Jul-14 13:30N 48°45' W 005°39'510.3
2018-Jul-14 13:00N 48°41' W 005°44'5 9.7
2018-Jul-14 12:28N 48°36' W 005°48'4 9.5
2018-Jul-14 12:00N 48°32' W 005°52'26 9.7
2018-Jul-14 09:21N 48°11' W 006°13'17 9.9
2018-Jul-14 07:37N 47°57' W 006°27'410.6
2018-Jul-14 07:14N 47°53' W 006°30'611.2
2018-Jul-14 06:45N 47°48' W 006°33'310.8
2018-Jul-14 06:30N 47°46' W 006°35'1010.9
2018-Jul-14 05:33N 47°37' W 006°44'111.6
2018-Jul-14 05:30N 47°37' W 006°45'611.9
2018-Jul-14 05:00N 47°32' W 006°50'612.4
2018-Jul-14 04:30N 47°27' W 006°55'612.4
2018-Jul-14 04:00N 47°22' W 006°60'611.9
2018-Jul-14 03:30N 47°17' W 007°06'612.2
2018-Jul-14 03:00N 47°12' W 007°11'612.6
2018-Jul-14 02:30N 47°07' W 007°15'612.2
2018-Jul-14 01:59N 47°02' W 007°20'1311.9
2018-Jul-14 00:53N 46°51' W 007°31'611.9
2018-Jul-14 00:22N 46°45' W 007°36'411.8
2018-Jul-14 00:00N 46°42' W 007°39'3011.6
2018-Jul-13 21:27N 46°17' W 008°03'  

Dump ship's entire track history